createdAt,value
2022-10-01T00:29:09.522Z,23.93
2022-10-01T00:59:12.890Z,20.35
2022-10-01T01:29:16.626Z,18.20
2022-10-01T01:59:20.769Z,19.37
2022-10-01T02:29:24.091Z,22.30
2022-10-01T02:59:27.499Z,21.10
2022-10-01T03:29:32.342Z,19.67
2022-10-01T03:59:35.593Z,18.43
2022-10-01T04:29:40.335Z,16.40
2022-10-01T04:59:44.264Z,17.27
2022-10-01T05:29:47.689Z,20.97
2022-10-01T05:59:50.805Z,26.35
2022-10-01T06:29:54.968Z,27.03
2022-10-01T06:59:58.156Z,26.37
2022-10-01T07:30:01.495Z,16.37
2022-10-01T08:00:05.554Z,16.13
2022-10-01T08:30:08.623Z,13.60
2022-10-01T09:00:11.849Z,12.07
2022-10-01T09:30:15.513Z,11.35
2022-10-01T10:00:18.359Z,8.60
2022-10-01T10:30:23.010Z,8.25
2022-10-01T11:00:25.869Z,5.37
2022-10-01T11:30:29.880Z,4.80
2022-10-01T12:00:33.072Z,5.87
2022-10-01T12:30:36.562Z,4.50
2022-10-01T13:00:39.816Z,4.90
2022-10-01T13:30:43.360Z,5.30
2022-10-01T14:00:46.736Z,2.73
2022-10-01T14:30:50.844Z,2.20
2022-10-01T15:00:54.020Z,3.80
2022-10-01T15:30:57.345Z,4.03
2022-10-01T16:01:00.672Z,5.67
2022-10-01T16:31:04.211Z,4.75
2022-10-01T17:01:07.907Z,5.90
2022-10-01T17:31:14.391Z,5.77
2022-10-01T18:01:21.294Z,6.20
2022-10-01T18:31:24.616Z,5.33
2022-10-01T19:01:27.577Z,5.00
2022-10-01T19:31:31.616Z,5.87
2022-10-01T20:01:34.452Z,5.60
2022-10-01T20:31:38.883Z,4.83
2022-10-01T21:01:41.761Z,5.13
2022-10-01T21:31:46.213Z,4.50
2022-10-01T22:01:49.059Z,3.77
2022-10-01T22:31:53.050Z,3.00
2022-10-01T23:01:55.970Z,3.30
2022-10-01T23:31:59.903Z,3.40
